createdAt,value
2023-02-23T00:01:40.553Z,99.90
2023-02-23T00:04:09.432Z,99.90
2023-02-23T00:06:38.826Z,99.90
2023-02-23T00:09:12.138Z,99.90
2023-02-23T00:11:41.840Z,99.90
2023-02-23T00:14:09.827Z,99.90
2023-02-23T00:16:37.812Z,99.90
2023-02-23T00:19:08.105Z,99.90
2023-02-23T00:21:36.423Z,99.90
2023-02-23T00:24:06.798Z,99.90
2023-02-23T00:26:36.411Z,99.90
2023-02-23T00:29:08.457Z,99.90
2023-02-23T00:31:38.501Z,99.90
2023-02-23T00:34:07.588Z,99.90
2023-02-23T00:36:36.914Z,99.90
2023-02-23T00:39:17.974Z,99.90
2023-02-23T00:41:46.370Z,99.90
2023-02-23T00:44:16.357Z,99.90
2023-02-23T00:46:45.664Z,99.90
2023-02-23T00:49:14.714Z,99.90
2023-02-23T00:51:42.757Z,99.90
2023-02-23T00:54:13.973Z,99.90
2023-02-23T00:56:42.331Z,99.90
2023-02-23T00:59:10.340Z,99.90
2023-02-23T01:01:41.760Z,99.90
2023-02-23T01:04:10.793Z,99.90
2023-02-23T01:06:40.700Z,99.90
2023-02-23T01:09:10.396Z,99.90
2023-02-23T01:11:38.509Z,99.90
2023-02-23T01:14:06.413Z,99.90
2023-02-23T01:16:35.857Z,99.90
2023-02-23T01:19:06.057Z,99.90
2023-02-23T01:21:36.552Z,99.90
2023-02-23T01:24:05.560Z,99.90
2023-02-23T01:26:36.187Z,99.90
2023-02-23T01:29:08.601Z,99.80
2023-02-23T01:31:37.229Z,99.80
2023-02-23T01:34:07.665Z,99.80
2023-02-23T01:36:38.868Z,99.90
2023-02-23T01:39:09.237Z,99.60
2023-02-23T01:41:38.107Z,99.90
2023-02-23T01:44:09.008Z,99.80
2023-02-23T01:46:39.009Z,99.90
2023-02-23T01:49:11.497Z,99.90
2023-02-23T01:51:43.776Z,99.90
2023-02-23T01:54:16.355Z,99.80
2023-02-23T01:56:49.215Z,99.80
2023-02-23T01:59:18.735Z,99.90
2023-02-23T02:01:48.181Z,99.90
2023-02-23T02:04:19.528Z,99.90
2023-02-23T02:06:53.489Z,99.90
2023-02-23T02:09:25.606Z,99.90
2023-02-23T02:11:55.016Z,99.90
2023-02-23T02:14:27.198Z,99.60
2023-02-23T02:17:12.663Z,99.30
2023-02-23T02:20:32.088Z,99.30
2023-02-23T02:23:49.197Z,99.40
2023-02-23T02:26:27.908Z,99.90
2023-02-23T02:29:37.863Z,99.80
2023-02-23T02:32:32.553Z,99.80
2023-02-23T02:35:37.994Z,99.50
2023-02-23T02:38:34.285Z,99.20
2023-02-23T02:41:07.544Z,99.00
2023-02-23T02:43:44.897Z,99.20
2023-02-23T02:46:17.455Z,99.00
2023-02-23T02:48:52.159Z,99.30
2023-02-23T02:51:25.383Z,99.10
2023-02-23T02:54:06.545Z,98.90
2023-02-23T02:56:40.290Z,99.00
2023-02-23T02:59:30.210Z,99.50
2023-02-23T03:02:16.349Z,99.40
2023-02-23T03:05:02.007Z,99.50
2023-02-23T03:07:54.685Z,99.80
2023-02-23T03:10:49.026Z,99.70
2023-02-23T03:13:41.509Z,99.90
2023-02-23T03:16:38.077Z,99.70
2023-02-23T03:19:33.226Z,99.40
2023-02-23T03:22:30.117Z,99.20
2023-02-23T03:25:19.774Z,99.60
2023-02-23T03:28:11.082Z,99.50
2023-02-23T03:31:09.660Z,99.30
2023-02-23T03:34:02.684Z,99.30
2023-02-23T03:36:52.292Z,99.10
2023-02-23T03:39:44.040Z,98.90
2023-02-23T03:42:34.168Z,98.90
2023-02-23T03:45:25.607Z,99.40
2023-02-23T03:48:13.816Z,99.80
2023-02-23T03:51:04.451Z,99.80
2023-02-23T03:53:54.423Z,99.90
2023-02-23T03:56:43.494Z,99.50
2023-02-23T03:59:32.490Z,99.70
2023-02-23T04:02:21.270Z,99.50
2023-02-23T04:05:07.691Z,99.50
2023-02-23T04:07:55.198Z,99.30
2023-02-23T04:10:42.069Z,99.30
2023-02-23T04:13:14.503Z,99.50
2023-02-23T04:15:47.424Z,99.70
2023-02-23T04:18:19.496Z,99.90
2023-02-23T04:20:47.682Z,99.90
2023-02-23T04:23:16.132Z,99.90
2023-02-23T04:25:44.077Z,99.90
2023-02-23T04:28:12.321Z,99.90
2023-02-23T04:30:40.903Z,99.90
2023-02-23T04:33:09.222Z,99.90
2023-02-23T04:35:38.809Z,99.90
2023-02-23T04:38:06.790Z,99.90
2023-02-23T04:40:34.857Z,99.90
2023-02-23T04:43:02.821Z,99.90
2023-02-23T04:45:30.744Z,99.90
2023-02-23T04:47:58.709Z,99.90
2023-02-23T04:50:26.981Z,99.90
2023-02-23T04:52:56.693Z,99.90
2023-02-23T04:55:26.813Z,99.90
2023-02-23T04:57:58.946Z,99.90
2023-02-23T05:00:27.116Z,99.90
2023-02-23T05:03:03.237Z,99.90
2023-02-23T05:05:31.920Z,99.90
2023-02-23T05:08:01.318Z,99.90
2023-02-23T05:10:29.658Z,99.90
2023-02-23T05:12:58.833Z,99.90
2023-02-23T05:15:26.786Z,99.90
2023-02-23T05:17:56.407Z,99.90
2023-02-23T05:20:24.437Z,99.90
2023-02-23T05:22:52.392Z,99.90
2023-02-23T05:25:21.894Z,99.90
2023-02-23T05:27:50.042Z,99.90
2023-02-23T05:30:18.435Z,99.90
2023-02-23T05:32:46.434Z,99.90
2023-02-23T05:35:14.449Z,99.90
2023-02-23T05:37:42.403Z,99.90
2023-02-23T05:40:12.228Z,99.90
2023-02-23T05:42:41.557Z,99.90
2023-02-23T05:45:10.105Z,99.90
2023-02-23T05:47:38.776Z,99.90
2023-02-23T05:50:07.984Z,99.90
2023-02-23T05:52:38.964Z,99.90
2023-02-23T05:55:07.774Z,99.90
2023-02-23T05:57:35.684Z,99.90
2023-02-23T06:00:07.083Z,99.90
2023-02-23T06:02:36.373Z,99.90
2023-02-23T06:05:05.979Z,99.90
2023-02-23T06:07:33.909Z,99.90
2023-02-23T06:10:01.886Z,99.90
2023-02-23T06:12:29.782Z,99.90
2023-02-23T06:14:58.072Z,99.90
2023-02-23T06:17:27.436Z,99.90
2023-02-23T06:19:55.564Z,99.90
2023-02-23T06:22:23.610Z,99.90
2023-02-23T06:24:51.608Z,99.90
2023-02-23T06:27:19.588Z,99.90
2023-02-23T06:29:47.553Z,99.90
2023-02-23T06:32:15.665Z,99.90
2023-02-23T06:34:45.635Z,99.90
2023-02-23T06:37:13.761Z,99.90
2023-02-23T06:39:41.706Z,99.90
2023-02-23T06:42:09.649Z,99.90
2023-02-23T06:44:37.803Z,99.90
2023-02-23T06:47:06.600Z,99.90
2023-02-23T06:49:34.682Z,99.90
2023-02-23T06:52:03.956Z,99.90
2023-02-23T06:54:31.845Z,99.90
2023-02-23T06:56:59.801Z,99.90
2023-02-23T06:59:27.881Z,99.90
2023-02-23T07:01:55.824Z,99.90
2023-02-23T07:04:24.059Z,99.90
2023-02-23T07:06:52.259Z,99.90
2023-02-23T07:09:21.550Z,99.90
2023-02-23T07:11:49.489Z,99.90
2023-02-23T07:14:26.165Z,99.90
2023-02-23T07:16:55.496Z,99.90
2023-02-23T07:19:23.799Z,99.90
2023-02-23T07:21:51.982Z,99.90
2023-02-23T07:24:21.888Z,99.90
2023-02-23T07:26:49.888Z,99.90
2023-02-23T07:29:17.946Z,99.90
2023-02-23T07:31:46.112Z,99.90
2023-02-23T07:34:14.120Z,99.90
2023-02-23T07:36:42.103Z,99.90
2023-02-23T07:39:10.059Z,99.90
2023-02-23T07:41:39.316Z,99.90
2023-02-23T07:44:07.741Z,99.90
2023-02-23T07:46:35.774Z,99.90
2023-02-23T07:49:04.414Z,99.90
2023-02-23T07:51:32.328Z,99.90
2023-02-23T07:54:04.614Z,99.90
2023-02-23T07:56:32.865Z,99.90
2023-02-23T07:59:02.320Z,99.90
2023-02-23T08:01:30.978Z,99.90
2023-02-23T08:03:58.960Z,99.90
2023-02-23T08:06:26.879Z,99.90
2023-02-23T08:08:54.800Z,99.90
2023-02-23T08:11:23.187Z,99.90
2023-02-23T08:13:51.126Z,99.90
2023-02-23T08:16:20.406Z,99.90
2023-02-23T08:18:48.692Z,99.90
2023-02-23T08:21:17.026Z,99.90
2023-02-23T08:23:45.441Z,99.90
2023-02-23T08:26:13.368Z,99.90
2023-02-23T08:28:41.783Z,99.90
2023-02-23T08:31:11.119Z,99.90
2023-02-23T08:33:41.434Z,99.90
2023-02-23T08:36:10.148Z,99.90
2023-02-23T08:38:38.037Z,99.90
2023-02-23T08:41:07.313Z,99.90
2023-02-23T08:43:35.248Z,99.90
2023-02-23T08:46:03.278Z,99.90
2023-02-23T08:48:33.929Z,99.90
2023-02-23T08:51:03.419Z,99.90
2023-02-23T08:53:31.455Z,99.90
2023-02-23T08:56:00.635Z,99.90
2023-02-23T08:58:28.706Z,99.90
2023-02-23T09:00:57.073Z,99.90
2023-02-23T09:03:26.241Z,99.90
2023-02-23T09:05:54.688Z,99.90
2023-02-23T09:08:24.841Z,99.90
2023-02-23T09:10:53.689Z,99.90
2023-02-23T09:13:21.628Z,99.90
2023-02-23T09:15:49.538Z,99.90
2023-02-23T09:18:18.365Z,99.90
2023-02-23T09:20:46.720Z,99.90
2023-02-23T09:23:14.688Z,99.90
2023-02-23T09:25:44.721Z,99.90
2023-02-23T09:28:14.101Z,99.90
2023-02-23T09:30:43.196Z,99.90
2023-02-23T09:33:11.897Z,99.90
2023-02-23T09:35:42.091Z,99.90
2023-02-23T09:38:10.584Z,99.90
2023-02-23T09:40:48.657Z,99.90
2023-02-23T09:43:21.202Z,99.90
2023-02-23T09:45:52.339Z,99.90
2023-02-23T09:48:23.016Z,99.90
2023-02-23T09:50:53.859Z,99.90
2023-02-23T09:53:33.868Z,99.90
2023-02-23T09:56:11.194Z,99.90
2023-02-23T09:58:40.111Z,99.90
2023-02-23T10:01:45.954Z,99.90
2023-02-23T10:04:20.302Z,99.60
2023-02-23T10:06:55.670Z,99.60
2023-02-23T10:09:44.143Z,99.20
2023-02-23T10:12:20.596Z,99.70
2023-02-23T10:15:01.291Z,99.90
2023-02-23T10:17:39.743Z,99.80
2023-02-23T10:20:19.689Z,99.50
2023-02-23T10:22:49.733Z,99.20
2023-02-23T10:25:21.315Z,99.30
2023-02-23T10:27:51.656Z,99.40
2023-02-23T10:30:22.903Z,99.70
2023-02-23T10:32:55.580Z,99.90
2023-02-23T10:35:25.407Z,99.70
2023-02-23T10:37:54.506Z,98.80
2023-02-23T10:40:27.645Z,99.40
2023-02-23T10:42:58.086Z,99.30
2023-02-23T10:45:28.605Z,98.70
2023-02-23T10:48:00.053Z,99.50
2023-02-23T10:50:29.217Z,98.30
2023-02-23T10:53:01.408Z,98.20
2023-02-23T10:55:31.479Z,98.70
2023-02-23T10:58:09.233Z,98.90
2023-02-23T11:00:39.824Z,98.50
2023-02-23T11:03:19.884Z,98.60
2023-02-23T11:05:50.610Z,98.50
2023-02-23T11:08:31.737Z,98.70
2023-02-23T11:11:06.631Z,98.50
2023-02-23T11:13:41.465Z,98.40
2023-02-23T11:16:13.898Z,98.10
2023-02-23T11:18:44.558Z,98.00
2023-02-23T11:21:18.631Z,97.80
2023-02-23T11:23:46.857Z,97.60
2023-02-23T11:26:38.263Z,97.70
2023-02-23T11:29:29.169Z,97.60
2023-02-23T11:31:59.924Z,97.90
2023-02-23T11:34:31.227Z,97.50
2023-02-23T11:37:02.480Z,97.60
2023-02-23T11:39:30.555Z,97.30
2023-02-23T11:42:19.397Z,97.80
2023-02-23T11:45:03.179Z,97.80
2023-02-23T11:47:32.754Z,97.80
2023-02-23T11:50:01.325Z,97.30
2023-02-23T11:52:31.286Z,96.90
2023-02-23T11:55:02.597Z,97.10
2023-02-23T11:57:34.093Z,97.30
2023-02-23T12:00:12.140Z,97.70
2023-02-23T12:02:51.213Z,97.40
2023-02-23T12:05:27.229Z,97.70
2023-02-23T12:08:00.946Z,97.40
2023-02-23T12:10:34.397Z,97.50
2023-02-23T12:13:10.640Z,98.20
2023-02-23T12:15:44.960Z,98.20
2023-02-23T12:18:33.480Z,98.30
2023-02-23T12:21:11.235Z,97.90
2023-02-23T12:23:42.112Z,97.60
2023-02-23T12:26:17.827Z,97.60
2023-02-23T12:28:54.081Z,97.50
2023-02-23T12:31:29.920Z,97.30
2023-02-23T12:34:03.588Z,97.30
2023-02-23T12:36:39.507Z,97.40
2023-02-23T12:39:17.787Z,97.30
2023-02-23T12:41:52.310Z,97.00
2023-02-23T12:44:33.119Z,97.10
2023-02-23T12:47:08.615Z,97.10
2023-02-23T12:49:40.424Z,97.40
2023-02-23T12:52:14.766Z,97.70
2023-02-23T12:54:43.833Z,97.50
2023-02-23T12:57:23.697Z,97.90
2023-02-23T13:00:23.705Z,97.30
2023-02-23T13:03:02.838Z,97.70
2023-02-23T13:05:34.513Z,97.50
2023-02-23T13:08:13.849Z,97.20
2023-02-23T13:10:50.064Z,97.00
2023-02-23T13:13:30.903Z,97.00
2023-02-23T13:16:06.981Z,97.00
2023-02-23T13:18:42.229Z,97.20
2023-02-23T13:21:18.779Z,97.40
2023-02-23T13:23:57.068Z,97.10
2023-02-23T13:26:34.265Z,97.10
2023-02-23T13:29:07.094Z,96.90
2023-02-23T13:31:37.605Z,97.20
2023-02-23T13:34:11.251Z,97.30
2023-02-23T13:36:40.643Z,97.20
2023-02-23T13:39:41.569Z,97.00
2023-02-23T13:42:25.846Z,96.70
2023-02-23T13:44:59.956Z,97.10
2023-02-23T13:47:38.725Z,96.90
2023-02-23T13:50:18.370Z,96.80
2023-02-23T13:52:47.615Z,96.80
2023-02-23T13:55:51.656Z,96.60
2023-02-23T13:58:27.389Z,96.80
2023-02-23T14:01:06.140Z,97.10
2023-02-23T14:03:42.161Z,97.10
2023-02-23T14:06:16.400Z,97.10
2023-02-23T14:08:46.796Z,97.20
2023-02-23T14:11:30.996Z,97.10
2023-02-23T14:14:01.754Z,97.30
2023-02-23T14:16:30.655Z,97.10
2023-02-23T14:19:11.175Z,97.20
2023-02-23T14:21:49.828Z,97.50
2023-02-23T14:24:21.110Z,97.30
2023-02-23T14:27:34.157Z,97.10
2023-02-23T14:30:27.961Z,97.10
2023-02-23T14:33:13.054Z,97.10
2023-02-23T14:35:45.895Z,97.10
2023-02-23T14:38:29.967Z,97.10
2023-02-23T14:41:03.525Z,97.20
2023-02-23T14:43:43.325Z,97.20
2023-02-23T14:46:15.711Z,97.10
2023-02-23T14:48:56.710Z,97.40
2023-02-23T14:51:32.187Z,97.90
2023-02-23T14:54:11.650Z,97.90
2023-02-23T14:56:47.854Z,98.00
2023-02-23T14:59:21.190Z,98.40
2023-02-23T15:01:50.050Z,98.20
2023-02-23T15:04:20.648Z,98.60
2023-02-23T15:06:49.316Z,99.00
2023-02-23T15:09:23.922Z,98.90
2023-02-23T15:11:54.117Z,98.70
2023-02-23T15:14:28.009Z,98.90
2023-02-23T15:16:57.461Z,99.10
2023-02-23T15:19:28.901Z,99.30
2023-02-23T15:21:58.842Z,99.30
2023-02-23T15:24:31.754Z,99.20
2023-02-23T15:27:00.069Z,99.30
2023-02-23T15:29:33.891Z,99.20
2023-02-23T15:32:17.520Z,99.10
2023-02-23T15:34:45.675Z,98.90
2023-02-23T15:37:19.960Z,98.80
2023-02-23T15:39:54.016Z,99.30
2023-02-23T15:42:26.478Z,98.90
2023-02-23T15:45:01.311Z,98.90
2023-02-23T15:47:34.658Z,98.90
2023-02-23T15:50:08.097Z,98.80
2023-02-23T15:52:43.897Z,98.80
2023-02-23T15:55:16.727Z,98.80
2023-02-23T15:57:49.046Z,98.90
2023-02-23T16:00:23.363Z,98.80
2023-02-23T16:02:52.075Z,98.70
2023-02-23T16:05:22.043Z,98.70
2023-02-23T16:08:06.044Z,98.70
2023-02-23T16:10:47.975Z,99.00
2023-02-23T16:13:22.041Z,98.90
2023-02-23T16:15:52.528Z,98.80
2023-02-23T16:18:23.338Z,98.80
2023-02-23T16:20:55.976Z,98.90
2023-02-23T16:23:33.778Z,99.00
2023-02-23T16:26:11.703Z,98.90
2023-02-23T16:28:44.591Z,99.50
2023-02-23T16:31:14.395Z,99.30
2023-02-23T16:33:45.235Z,99.30
2023-02-23T16:36:19.336Z,99.90
2023-02-23T16:38:59.820Z,99.90
2023-02-23T16:41:32.205Z,99.60
2023-02-23T16:44:03.000Z,99.40
2023-02-23T16:46:35.622Z,99.30
2023-02-23T16:49:10.102Z,99.20
2023-02-23T16:51:38.517Z,99.50
2023-02-23T16:54:08.364Z,99.90
2023-02-23T16:56:40.743Z,99.90
2023-02-23T16:59:12.129Z,99.90
2023-02-23T17:01:40.056Z,99.90
2023-02-23T17:04:15.291Z,99.50
2023-02-23T17:06:43.635Z,99.40
2023-02-23T17:09:12.053Z,99.90
2023-02-23T17:11:42.048Z,99.90
2023-02-23T17:14:12.516Z,99.90
2023-02-23T17:16:40.589Z,99.90
2023-02-23T17:19:08.531Z,99.90
2023-02-23T17:21:36.597Z,99.90
2023-02-23T17:24:04.741Z,99.90
2023-02-23T17:26:32.689Z,99.90
2023-02-23T17:29:01.964Z,99.90
2023-02-23T17:31:31.977Z,99.90
2023-02-23T17:34:00.344Z,99.90
2023-02-23T17:36:28.312Z,99.90
2023-02-23T17:38:58.608Z,99.90
2023-02-23T17:41:27.220Z,99.90
2023-02-23T17:43:55.534Z,99.90
2023-02-23T17:46:24.921Z,99.90
2023-02-23T17:48:55.089Z,99.90
2023-02-23T17:51:23.973Z,99.90
2023-02-23T17:53:51.982Z,99.90
2023-02-23T17:56:20.165Z,99.90
2023-02-23T17:58:48.794Z,99.90
2023-02-23T18:01:17.933Z,99.90
2023-02-23T18:03:48.008Z,99.90
2023-02-23T18:06:16.873Z,99.90
2023-02-23T18:08:45.450Z,99.90
2023-02-23T18:11:17.381Z,99.90
2023-02-23T18:13:47.789Z,99.90
2023-02-23T18:16:16.731Z,99.90
2023-02-23T18:18:48.549Z,99.90
2023-02-23T18:21:19.175Z,99.90
2023-02-23T18:23:47.663Z,99.90
2023-02-23T18:26:17.989Z,99.90
2023-02-23T18:28:47.325Z,99.90
2023-02-23T18:31:17.076Z,99.90
2023-02-23T18:33:49.648Z,99.90
2023-02-23T18:36:20.817Z,99.90
2023-02-23T18:38:49.404Z,99.90
2023-02-23T18:41:18.538Z,99.90
2023-02-23T18:43:47.445Z,99.90
2023-02-23T18:46:16.984Z,99.90
2023-02-23T18:48:45.566Z,99.90
2023-02-23T18:51:15.078Z,99.90
2023-02-23T18:53:44.482Z,99.90
2023-02-23T18:56:14.635Z,99.90
2023-02-23T18:58:45.284Z,99.90
2023-02-23T19:01:17.935Z,99.90
2023-02-23T19:03:46.304Z,99.90
2023-02-23T19:06:17.020Z,99.90
2023-02-23T19:08:45.720Z,99.90
2023-02-23T19:11:13.860Z,99.90
2023-02-23T19:13:42.149Z,99.90
2023-02-23T19:16:10.228Z,99.90
2023-02-23T19:18:38.284Z,99.90
2023-02-23T19:21:08.317Z,99.90
2023-02-23T19:23:38.722Z,99.90
2023-02-23T19:26:06.931Z,99.90
2023-02-23T19:28:35.096Z,99.90
2023-02-23T19:31:04.697Z,99.90
2023-02-23T19:33:33.529Z,99.90
2023-02-23T19:36:05.292Z,99.90
2023-02-23T19:38:33.403Z,99.90
2023-02-23T19:41:06.103Z,99.90
2023-02-23T19:43:34.335Z,99.90
2023-02-23T19:46:04.804Z,99.90
2023-02-23T19:48:32.819Z,99.90
2023-02-23T19:51:00.908Z,99.90
2023-02-23T19:53:29.388Z,99.90
2023-02-23T19:56:03.247Z,99.90
2023-02-23T19:58:31.197Z,99.90
2023-02-23T20:01:05.160Z,99.90
2023-02-23T20:03:33.190Z,99.90
2023-02-23T20:06:05.376Z,99.90
2023-02-23T20:08:34.236Z,99.90
2023-02-23T20:11:06.340Z,99.90
2023-02-23T20:13:34.317Z,99.90
2023-02-23T20:16:03.437Z,99.90
2023-02-23T20:18:33.356Z,99.90
2023-02-23T20:21:01.315Z,99.90
2023-02-23T20:23:29.589Z,99.90
2023-02-23T20:25:57.503Z,99.90
2023-02-23T20:28:26.937Z,99.90
2023-02-23T20:30:54.955Z,99.90
2023-02-23T20:33:22.928Z,99.90
2023-02-23T20:35:51.272Z,99.90
2023-02-23T20:38:19.252Z,99.90
2023-02-23T20:40:50.222Z,99.90
2023-02-23T20:43:18.219Z,99.90
2023-02-23T20:45:47.626Z,99.90
2023-02-23T20:48:15.742Z,99.90
2023-02-23T20:50:44.021Z,99.90
2023-02-23T20:53:12.098Z,99.90
2023-02-23T20:55:40.634Z,99.90
2023-02-23T20:58:08.753Z,99.90
2023-02-23T21:00:36.677Z,99.90
2023-02-23T21:03:06.011Z,99.90
2023-02-23T21:05:40.217Z,99.90
2023-02-23T21:08:09.645Z,99.90
2023-02-23T21:10:40.003Z,99.90
2023-02-23T21:13:10.286Z,99.90
2023-02-23T21:15:39.078Z,99.90
2023-02-23T21:18:08.864Z,99.90
2023-02-23T21:20:38.590Z,99.90
2023-02-23T21:23:06.612Z,99.90
2023-02-23T21:25:34.898Z,99.90
2023-02-23T21:28:02.945Z,99.90
2023-02-23T21:30:31.156Z,99.90
2023-02-23T21:33:00.103Z,99.90
2023-02-23T21:35:29.549Z,99.90
2023-02-23T21:37:57.837Z,99.90
2023-02-23T21:40:26.028Z,99.90
2023-02-23T21:42:54.064Z,99.90
2023-02-23T21:45:22.169Z,99.90
2023-02-23T21:47:50.338Z,99.90
2023-02-23T21:50:20.724Z,99.90
2023-02-23T21:52:54.021Z,99.90
2023-02-23T21:55:22.759Z,99.90
2023-02-23T21:57:51.262Z,99.90
2023-02-23T22:00:20.892Z,99.90
2023-02-23T22:02:49.307Z,99.90
2023-02-23T22:05:19.704Z,99.90
2023-02-23T22:07:54.125Z,99.90
2023-02-23T22:10:24.227Z,99.90
2023-02-23T22:12:53.482Z,99.90
2023-02-23T22:15:25.190Z,99.90
2023-02-23T22:17:53.110Z,99.90
2023-02-23T22:20:21.324Z,99.90
2023-02-23T22:22:50.309Z,99.90
2023-02-23T22:25:21.046Z,99.90
2023-02-23T22:27:48.960Z,99.90
2023-02-23T22:30:17.365Z,99.90
2023-02-23T22:32:45.542Z,99.90
2023-02-23T22:35:13.590Z,99.90
2023-02-23T22:37:41.473Z,99.90
2023-02-23T22:40:14.382Z,99.90
2023-02-23T22:42:48.024Z,99.90
2023-02-23T22:45:16.995Z,99.90
2023-02-23T22:47:45.030Z,99.90
2023-02-23T22:50:18.998Z,99.90
2023-02-23T22:52:47.285Z,99.90
2023-02-23T22:55:15.292Z,99.90
2023-02-23T22:57:45.981Z,99.90
2023-02-23T23:00:17.399Z,99.90
2023-02-23T23:02:45.691Z,99.90
2023-02-23T23:05:14.507Z,99.90
2023-02-23T23:07:43.126Z,99.90
2023-02-23T23:10:12.614Z,99.90
2023-02-23T23:12:41.505Z,99.90
2023-02-23T23:15:15.153Z,99.90
2023-02-23T23:17:48.374Z,99.90
2023-02-23T23:20:18.637Z,99.90
2023-02-23T23:22:46.564Z,99.90
2023-02-23T23:25:15.666Z,99.90
2023-02-23T23:27:45.694Z,99.90
2023-02-23T23:30:15.978Z,99.90
2023-02-23T23:32:44.038Z,99.90
2023-02-23T23:35:13.925Z,99.90
2023-02-23T23:37:41.930Z,99.90
2023-02-23T23:40:14.631Z,99.90
2023-02-23T23:42:45.790Z,99.90
2023-02-23T23:45:16.572Z,99.90
2023-02-23T23:47:44.947Z,99.90
2023-02-23T23:50:15.372Z,99.90
2023-02-23T23:52:44.466Z,99.90
2023-02-23T23:55:14.577Z,99.90
2023-02-23T23:57:42.907Z,99.90
